Time,TemperatureF,DewpointF,PressureIn,WindDirection,WindDirectionDegrees,WindSpeedMPH,WindSpeedGustMPH,Humidity,HourlyPrecipIn,Conditions,Clouds,dailyrainin,SolarRadiationWatts/m^2,SoftwareType,DateUTC
2013-06-06 00:02:00,44.0,34.0,-100.00,West,267,5.0,7.0,69,0.00,,,0.00,0.000000,,2013-06-06 06:02:00,
2013-06-06 00:12:00,44.0,34.0,-100.00,West,267,5.0,7.0,69,0.00,,,0.00,0.000000,,2013-06-06 06:12:00,
2013-06-06 00:33:00,43.0,33.0,-100.00,West,275,4.0,8.0,68,0.00,,,0.00,0.000000,,2013-06-06 06:33:00,
2013-06-06 00:42:00,43.0,33.0,-100.00,West,275,4.0,8.0,68,0.00,,,0.00,0.000000,,2013-06-06 06:42:00,
2013-06-06 00:52:00,43.0,33.0,-100.00,West,275,4.0,8.0,68,0.00,,,0.00,0.000000,,2013-06-06 06:52:00,
2013-06-06 01:02:00,43.0,33.0,-100.00,West,275,4.0,8.0,68,0.00,,,0.00,0.000000,,2013-06-06 07:02:00,
2013-06-06 01:12:00,43.0,33.0,-100.00,West,275,4.0,8.0,68,0.00,,,0.00,0.000000,,2013-06-06 07:12:00,
2013-06-06 01:42:00,43.0,33.0,-100.00,West,276,4.0,7.0,67,0.00,,,0.00,0.000000,,2013-06-06 07:42:00,
2013-06-06 01:52:00,43.0,33.0,-100.00,West,276,4.0,7.0,67,0.00,,,0.00,0.000000,,2013-06-06 07:52:00,
2013-06-06 02:02:00,43.0,33.0,-100.00,West,276,4.0,7.0,67,0.00,,,0.00,0.000000,,2013-06-06 08:02:00,
2013-06-06 02:12:00,43.0,33.0,-100.00,West,276,4.0,7.0,67,0.00,,,0.00,0.000000,,2013-06-06 08:12:00,
2013-06-06 02:32:00,41.0,33.0,-100.00,West,267,4.0,7.0,74,0.00,,,0.00,0.000000,,2013-06-06 08:32:00,
2013-06-06 02:42:00,41.0,33.0,-100.00,West,267,4.0,7.0,74,0.00,,,0.00,0.000000,,2013-06-06 08:42:00,
2013-06-06 02:52:00,41.0,33.0,-100.00,West,267,4.0,7.0,74,0.00,,,0.00,0.000000,,2013-06-06 08:52:00,
2013-06-06 03:02:00,41.0,33.0,-100.00,West,267,4.0,7.0,74,0.00,,,0.00,0.000000,,2013-06-06 09:02:00,
2013-06-06 03:12:00,41.0,33.0,-100.00,West,267,4.0,7.0,74,0.00,,,0.00,0.000000,,2013-06-06 09:12:00,
2013-06-06 03:43:00,43.0,34.0,-100.00,West,274,5.0,7.0,69,0.00,,,0.00,0.000000,,2013-06-06 09:43:00,
2013-06-06 03:53:00,43.0,34.0,-100.00,West,274,5.0,7.0,69,0.00,,,0.00,0.000000,,2013-06-06 09:53:00,
2013-06-06 04:02:00,43.0,34.0,-100.00,West,274,5.0,7.0,69,0.00,,,0.00,0.000000,,2013-06-06 10:02:00,
2013-06-06 04:12:00,43.0,34.0,-100.00,West,274,5.0,7.0,69,0.00,,,0.00,0.000000,,2013-06-06 10:12:00,
2013-06-06 04:33:00,42.0,34.0,-100.00,WNW,288,4.0,7.0,72,0.00,,,0.00,0.000000,,2013-06-06 10:33:00,
2013-06-06 04:42:00,42.0,34.0,-100.00,WNW,288,4.0,7.0,72,0.00,,,0.00,0.000000,,2013-06-06 10:42:00,
2013-06-06 04:53:00,42.0,34.0,-100.00,WNW,288,4.0,7.0,72,0.00,,,0.00,0.000000,,2013-06-06 10:53:00,
2013-06-06 05:02:00,42.0,34.0,-100.00,WNW,288,4.0,7.0,72,0.00,,,0.00,0.000000,,2013-06-06 11:02:00,
2013-06-06 05:12:00,42.0,34.0,-100.00,WNW,288,4.0,7.0,72,0.00,,,0.00,0.000000,,2013-06-06 11:12:00,
2013-06-06 05:32:00,41.0,33.0,-100.00,West,276,4.0,6.0,73,0.00,,,0.00,0.000000,,2013-06-06 11:32:00,
2013-06-06 05:42:00,41.0,33.0,-100.00,West,276,4.0,6.0,73,0.00,,,0.00,0.000000,,2013-06-06 11:42:00,
2013-06-06 05:52:00,41.0,33.0,-100.00,West,276,4.0,6.0,73,0.00,,,0.00,0.000000,,2013-06-06 11:52:00,
2013-06-06 06:02:00,41.0,33.0,-100.00,West,276,4.0,6.0,73,0.00,,,0.00,0.000000,,2013-06-06 12:02:00,
2013-06-06 06:12:00,41.0,33.0,-100.00,West,276,4.0,6.0,73,0.00,,,0.00,0.000000,,2013-06-06 12:12:00,
2013-06-06 06:33:00,42.0,34.0,-100.00,West,278,4.0,6.0,72,-99.99,,,0.00,7.000000,,2013-06-06 12:33:00,
2013-06-06 06:43:00,42.0,34.0,-100.00,West,278,4.0,6.0,72,-99.99,,,0.00,7.000000,,2013-06-06 12:43:00,
2013-06-06 06:53:00,42.0,34.0,-100.00,West,278,4.0,6.0,72,-99.99,,,0.00,7.000000,,2013-06-06 12:53:00,
2013-06-06 07:02:00,42.0,34.0,-100.00,West,278,4.0,6.0,72,-99.99,,,0.00,7.000000,,2013-06-06 13:02:00,
2013-06-06 07:12:00,42.0,34.0,-100.00,West,278,4.0,6.0,72,-99.99,,,0.00,7.000000,,2013-06-06 13:12:00,
2013-06-06 07:43:00,50.0,39.0,-100.00,West,281,3.0,9.0,67,0.00,,,0.00,86.000000,,2013-06-06 13:43:00,
2013-06-06 07:53:00,50.0,39.0,-100.00,West,281,3.0,9.0,67,0.00,,,0.00,86.000000,,2013-06-06 13:53:00,
2013-06-06 08:02:00,50.0,39.0,-100.00,West,281,3.0,9.0,67,0.00,,,0.00,86.000000,,2013-06-06 14:02:00,
2013-06-06 08:12:00,50.0,39.0,-100.00,West,281,3.0,9.0,67,0.00,,,0.00,86.000000,,2013-06-06 14:12:00,
2013-06-06 08:33:00,60.0,34.0,-100.00,WNW,286,5.0,12.0,38,0.00,,,0.00,397.000000,,2013-06-06 14:33:00,
2013-06-06 08:43:00,60.0,34.0,-100.00,WNW,286,5.0,12.0,38,0.00,,,0.00,397.000000,,2013-06-06 14:43:00,
2013-06-06 08:53:00,60.0,34.0,-100.00,WNW,286,5.0,12.0,38,0.00,,,0.00,397.000000,,2013-06-06 14:53:00,
2013-06-06 09:02:00,60.0,34.0,-100.00,WNW,286,5.0,12.0,38,0.00,,,0.00,397.000000,,2013-06-06 15:02:00,
2013-06-06 09:12:00,60.0,34.0,-100.00,WNW,286,5.0,12.0,38,0.00,,,0.00,397.000000,,2013-06-06 15:12:00,
2013-06-06 10:34:00,63.0,38.0,-100.00,West,281,7.0,14.0,40,-99.99,,,0.00,804.000000,,2013-06-06 16:34:00,
2013-06-06 10:44:00,63.0,38.0,-100.00,West,281,7.0,14.0,40,-99.99,,,0.00,804.000000,,2013-06-06 16:44:00,
2013-06-06 10:53:00,63.0,38.0,-100.00,West,281,7.0,14.0,40,-99.99,,,0.00,804.000000,,2013-06-06 16:53:00,
2013-06-06 11:03:00,63.0,38.0,-100.00,West,281,7.0,14.0,40,-99.99,,,0.00,804.000000,,2013-06-06 17:03:00,
2013-06-06 11:12:00,63.0,38.0,-100.00,West,281,7.0,14.0,40,-99.99,,,0.00,804.000000,,2013-06-06 17:12:00,
2013-06-06 11:33:00,64.0,40.0,-100.00,West,269,6.0,19.0,42,0.00,,,0.00,947.000000,,2013-06-06 17:33:00,
2013-06-06 11:43:00,64.0,40.0,-100.00,West,269,6.0,19.0,42,0.00,,,0.00,947.000000,,2013-06-06 17:43:00,
2013-06-06 11:53:00,64.0,40.0,-100.00,West,269,6.0,19.0,42,0.00,,,0.00,947.000000,,2013-06-06 17:53:00,
2013-06-06 12:03:00,64.0,40.0,-100.00,West,269,6.0,19.0,42,0.00,,,0.00,947.000000,,2013-06-06 18:03:00,
2013-06-06 12:12:00,64.0,40.0,-100.00,West,269,6.0,19.0,42,0.00,,,0.00,947.000000,,2013-06-06 18:12:00,
2013-06-06 12:33:00,64.0,39.0,-100.00,SSW,201,5.0,19.0,40,0.00,,,0.00,860.000000,,2013-06-06 18:33:00,
2013-06-06 12:43:00,64.0,39.0,-100.00,SSW,201,5.0,19.0,40,0.00,,,0.00,860.000000,,2013-06-06 18:43:00,
2013-06-06 12:53:00,64.0,39.0,-100.00,SSW,201,5.0,19.0,40,0.00,,,0.00,860.000000,,2013-06-06 18:53:00,
2013-06-06 13:02:00,64.0,39.0,-100.00,SSW,201,5.0,19.0,40,0.00,,,0.00,860.000000,,2013-06-06 19:02:00,
2013-06-06 13:12:00,64.0,39.0,-100.00,SSW,201,5.0,19.0,40,0.00,,,0.00,860.000000,,2013-06-06 19:12:00,
2013-06-06 13:43:00,65.0,42.0,-100.00,ESE,121,10.0,20.0,43,0.00,,,0.00,831.000000,,2013-06-06 19:43:00,
2013-06-06 13:53:00,65.0,42.0,-100.00,ESE,121,10.0,20.0,43,0.00,,,0.00,831.000000,,2013-06-06 19:53:00,
2013-06-06 14:02:00,65.0,42.0,-100.00,ESE,121,10.0,20.0,43,0.00,,,0.00,831.000000,,2013-06-06 20:02:00,
2013-06-06 14:12:00,65.0,42.0,-100.00,ESE,121,10.0,20.0,43,0.00,,,0.00,831.000000,,2013-06-06 20:12:00,
2013-06-06 14:33:00,66.0,43.0,-100.00,ESE,114,11.0,17.0,44,0.00,,,0.00,1156.000000,,2013-06-06 20:33:00,
2013-06-06 14:43:00,66.0,43.0,-100.00,ESE,114,11.0,17.0,44,0.00,,,0.00,1156.000000,,2013-06-06 20:43:00,
2013-06-06 14:53:00,66.0,43.0,-100.00,ESE,114,11.0,17.0,44,0.00,,,0.00,1156.000000,,2013-06-06 20:53:00,
2013-06-06 15:03:00,66.0,43.0,-100.00,ESE,114,11.0,17.0,44,0.00,,,0.00,1156.000000,,2013-06-06 21:03:00,
2013-06-06 15:12:00,66.0,43.0,-100.00,ESE,114,11.0,17.0,44,0.00,,,0.00,1156.000000,,2013-06-06 21:12:00,
2013-06-06 15:33:00,65.0,43.0,-100.00,ESE,114,10.0,18.0,44,0.00,,,0.00,985.000000,,2013-06-06 21:33:00,
2013-06-06 15:44:00,65.0,43.0,-100.00,ESE,114,10.0,18.0,44,0.00,,,0.00,985.000000,,2013-06-06 21:44:00,
2013-06-06 15:53:00,65.0,43.0,-100.00,ESE,114,10.0,18.0,44,0.00,,,0.00,985.000000,,2013-06-06 21:53:00,
2013-06-06 16:02:00,65.0,43.0,-100.00,ESE,114,10.0,18.0,44,0.00,,,0.00,985.000000,,2013-06-06 22:02:00,
2013-06-06 16:12:00,65.0,43.0,-100.00,ESE,114,10.0,18.0,44,0.00,,,0.00,985.000000,,2013-06-06 22:12:00,
2013-06-06 16:33:00,63.0,41.0,-100.00,East,91,7.0,19.0,45,0.00,,,0.00,573.000000,,2013-06-06 22:33:00,
2013-06-06 16:43:00,63.0,41.0,-100.00,East,91,7.0,19.0,45,0.00,,,0.00,573.000000,,2013-06-06 22:43:00,
2013-06-06 16:53:00,63.0,41.0,-100.00,East,91,7.0,19.0,45,0.00,,,0.00,573.000000,,2013-06-06 22:53:00,
2013-06-06 17:02:00,63.0,41.0,-100.00,East,91,7.0,19.0,45,0.00,,,0.00,573.000000,,2013-06-06 23:02:00,
2013-06-06 17:12:00,63.0,41.0,-100.00,East,91,7.0,19.0,45,0.00,,,0.00,573.000000,,2013-06-06 23:12:00,
2013-06-06 17:33:00,62.0,42.0,-100.00,ESE,113,8.0,15.0,48,0.00,,,0.00,325.000000,,2013-06-06 23:33:00,
2013-06-06 17:43:00,62.0,42.0,-100.00,ESE,113,8.0,15.0,48,0.00,,,0.00,325.000000,,2013-06-06 23:43:00,
2013-06-06 17:52:00,62.0,42.0,-100.00,ESE,113,8.0,15.0,48,0.00,,,0.00,325.000000,,2013-06-06 23:52:00,
2013-06-06 18:02:00,62.0,42.0,-100.00,ESE,113,8.0,15.0,48,0.00,,,0.00,325.000000,,2013-06-07 00:02:00,
2013-06-06 18:12:00,62.0,42.0,-100.00,ESE,113,8.0,15.0,48,0.00,,,0.00,325.000000,,2013-06-07 00:12:00,
2013-06-06 19:33:00,61.0,42.0,-100.00,ESE,120,5.0,9.0,49,-99.99,,,0.00,220.000000,,2013-06-07 01:33:00,
2013-06-06 19:42:00,61.0,42.0,-100.00,ESE,120,5.0,9.0,49,-99.99,,,0.00,220.000000,,2013-06-07 01:42:00,
2013-06-06 19:52:00,61.0,42.0,-100.00,ESE,120,5.0,9.0,49,-99.99,,,0.00,220.000000,,2013-06-07 01:52:00,
2013-06-06 20:02:00,61.0,42.0,-100.00,ESE,120,5.0,9.0,49,-99.99,,,0.00,220.000000,,2013-06-07 02:02:00,
2013-06-06 20:12:00,61.0,42.0,-100.00,ESE,120,5.0,9.0,49,-99.99,,,0.00,220.000000,,2013-06-07 02:12:00,
2013-06-06 20:32:00,57.0,45.0,-100.00,ESE,117,8.0,13.0,65,0.00,,,0.00,130.000000,,2013-06-07 02:32:00,
2013-06-06 20:42:00,57.0,45.0,-100.00,ESE,117,8.0,13.0,65,0.00,,,0.00,130.000000,,2013-06-07 02:42:00,
2013-06-06 20:52:00,57.0,45.0,-100.00,ESE,117,8.0,13.0,65,0.00,,,0.00,130.000000,,2013-06-07 02:52:00,
2013-06-06 21:02:00,57.0,45.0,-100.00,ESE,117,8.0,13.0,65,0.00,,,0.00,130.000000,,2013-06-07 03:02:00,
2013-06-06 21:12:00,57.0,45.0,-100.00,ESE,117,8.0,13.0,65,0.00,,,0.00,130.000000,,2013-06-07 03:12:00,
2013-06-06 21:33:00,53.0,45.0,-100.00,WNW,296,1.0,13.0,73,0.00,,,0.00,15.000000,,2013-06-07 03:33:00,
2013-06-06 21:44:00,53.0,45.0,-100.00,WNW,296,1.0,13.0,73,0.00,,,0.00,15.000000,,2013-06-07 03:44:00,
2013-06-06 21:53:00,53.0,45.0,-100.00,WNW,296,1.0,13.0,73,0.00,,,0.00,15.000000,,2013-06-07 03:53:00,
2013-06-06 22:03:00,53.0,45.0,-100.00,WNW,296,1.0,13.0,73,0.00,,,0.00,15.000000,,2013-06-07 04:03:00,
2013-06-06 22:12:00,53.0,45.0,-100.00,WNW,296,1.0,13.0,73,0.00,,,0.00,15.000000,,2013-06-07 04:12:00,
2013-06-06 22:33:00,52.0,43.0,-100.00,WNW,291,5.0,8.0,71,0.00,,,0.00,0.000000,,2013-06-07 04:33:00,
2013-06-06 22:42:00,52.0,43.0,-100.00,WNW,291,5.0,8.0,71,0.00,,,0.00,0.000000,,2013-06-07 04:42:00,
2013-06-06 22:53:00,52.0,43.0,-100.00,WNW,291,5.0,8.0,71,0.00,,,0.00,0.000000,,2013-06-07 04:53:00,
2013-06-06 23:02:00,52.0,43.0,-100.00,WNW,291,5.0,8.0,71,0.00,,,0.00,0.000000,,2013-06-07 05:02:00,
2013-06-06 23:12:00,52.0,43.0,-100.00,WNW,291,5.0,8.0,71,0.00,,,0.00,0.000000,,2013-06-07 05:12:00,
2013-06-06 23:32:00,48.0,40.0,-100.00,WNW,286,4.0,6.0,74,0.00,,,0.00,0.000000,,2013-06-07 05:32:00,
2013-06-06 23:42:00,48.0,40.0,-100.00,WNW,286,4.0,6.0,74,0.00,,,0.00,0.000000,,2013-06-07 05:42:00,
2013-06-06 23:52:00,48.0,40.0,-100.00,WNW,286,4.0,6.0,74,0.00,,,0.00,0.000000,,2013-06-07 05:52:00,